This is the latest recevied weather packets stored in our database for station/object N1KM-15. If no packets are shown the sender has not sent any weather packets the latest 10 day(s).
| Time | Temp. | Humidity | Pressure | Rain* | Wind** | Luminosity | Snow |
|---|---|---|---|---|---|---|---|
| 1777417200 | 11.67° C | 58% | 1017 hPa | 0 mm | - | - | - |
| 1777416300 | 12.22° C | 55% | 1017.1 hPa | 0 mm | - | - | - |
| 1777415400 | 13.33° C | 44% | 1017.2 hPa | 0 mm | - | - | - |
| 1777414500 | 13.89° C | 40% | 1017.3 hPa | 0 mm | - | - | - |
| 1777413600 | 13.89° C | 39% | 1017.4 hPa | 0 mm | - | - | - |
| 1777412700 | 14.44° C | 39% | 1017.6 hPa | 0 mm | - | - | - |
| 1777411800 | 15° C | 38% | 1017.7 hPa | 0 mm | - | - | - |
| 1777410900 | 16.11° C | 39% | 1017.7 hPa | 0 mm | - | - | - |
| 1777410000 | 16.11° C | 39% | 1017.3 hPa | 0 mm | - | - | - |
| 1777409100 | 16.11° C | 39% | 1017.6 hPa | 0 mm | - | - | - |
| 1777408200 | 16.67° C | 38% | 1017.3 hPa | 0 mm | - | - | - |
| 1777407300 | 17.22° C | 38% | 1017.4 hPa | 0 mm | - | - | - |
| 1777406400 | 17.78° C | 38% | 1017.3 hPa | 0 mm | - | - | - |
| 1777405500 | 17.78° C | 38% | 1017.2 hPa | 0 mm | - | - | - |
| 1777404600 | 18.33° C | 38% | 1017.3 hPa | 0 mm | - | - | - |
| 1777403700 | 17.78° C | 40% | 1017.5 hPa | 0 mm | - | - | - |
| 1777402800 | 18.89° C | 38% | 1017.3 hPa | 0 mm | - | - | - |
| 1777401900 | 18.33° C | 40% | 1017.4 hPa | 0 mm | - | - | - |
| 1777401000 | 17.78° C | 43% | 1017.8 hPa | 0 mm | - | - | - |
| 1777400100 | 18.33° C | 42% | 1018.2 hPa | 0 mm | - | - | - |
| 1777399200 | 17.78° C | 43% | 1018 hPa | 0 mm | - | - | - |
| 1777398300 | 17.78° C | 44% | 1018 hPa | 0 mm | - | - | - |
| 1777397400 | 18.33° C | 44% | 1017.6 hPa | 0 mm | - | - | - |
| 1777396500 | 17.78° C | 45% | 1017.8 hPa | 0 mm | - | - | - |
| 1777395600 | 18.89° C | 41% | 1017.8 hPa | 0 mm | - | - | - |
* Rain since midnight (hover to see other rain measurements)
** Current wind speed in m/s (hover to see current wind gust speed)